Time;durP1;ratioP1;P1;durP2;ratioP2;P2;SDS_P1;SDS_P2;PMS_P1;PMS_P2;Temp;Humidity;BMP_temperature;BMP_pressure;BME280_temperature;BME280_humidity;BME280_pressure;Samples;Min_cycle;Max_cycle;Signal;HPM_P1;HPM_P2
2023/01/29 00:02:10;;;;;;;27.23;14.73;;;-1.60;99.90;;;;;;5006832;28;20214;-51
2023/01/29 00:04:37;;;;;;;21.00;12.57;;;-1.50;99.90;;;;;;5011496;28;20281;-50
2023/01/29 00:07:05;;;;;;;21.87;13.40;;;-1.50;99.90;;;;;;5003944;28;20630;-51
2023/01/29 00:09:32;;;;;;;25.97;12.57;;;-1.60;99.90;;;;;;5000316;28;20236;-49
2023/01/29 00:11:59;;;;;;;23.83;13.60;;;-1.70;99.90;;;;;;4994864;28;20274;-48
2023/01/29 00:14:27;;;;;;;17.00;11.23;;;-1.70;99.90;;;;;;4999618;28;20672;-50
2023/01/29 00:16:54;;;;;;;20.80;12.23;;;-1.80;99.90;;;;;;4998970;28;20207;-50
2023/01/29 00:19:21;;;;;;;24.97;12.73;;;-1.80;99.90;;;;;;5007354;28;20736;-49
2023/01/29 00:21:49;;;;;;;24.53;13.33;;;-1.80;99.90;;;;;;5011085;28;20208;-50
2023/01/29 00:24:17;;;;;;;19.87;13.17;;;-1.90;99.90;;;;;;5010726;28;20222;-49
2023/01/29 00:26:44;;;;;;;18.67;11.60;;;-1.90;99.90;;;;;;5006457;28;20236;-51
2023/01/29 00:29:11;;;;;;;21.23;11.87;;;-1.90;99.90;;;;;;5005126;28;20215;-50
2023/01/29 00:31:38;;;;;;;22.73;12.10;;;-1.90;99.90;;;;;;5009128;28;20195;-51
2023/01/29 00:34:05;;;;;;;21.57;12.23;;;-1.90;99.90;;;;;;5008014;28;20220;-47
2023/01/29 00:36:32;;;;;;;22.73;13.67;;;-1.90;99.90;;;;;;5005128;28;20204;-51
2023/01/29 00:39:01;;;;;;;19.07;11.80;;;-1.90;99.90;;;;;;5004516;28;20201;-50
2023/01/29 00:47:00;;;;;;;24.47;13.67;;;-1.90;99.90;;;;;;5010164;28;20726;-49
2023/01/29 00:49:29;;;;;;;29.43;14.57;;;-1.90;99.90;;;;;;5004063;28;20200;-48
2023/01/29 00:54:40;;;;;;;25.40;13.07;;;-2.00;99.90;;;;;;5002636;28;20221;-48
2023/01/29 00:57:08;;;;;;;27.50;14.43;;;-2.00;99.90;;;;;;5012325;28;20196;-50
2023/01/29 00:59:35;;;;;;;20.63;13.07;;;-2.00;99.90;;;;;;5004666;28;20206;-50
2023/01/29 01:04:46;;;;;;;21.73;13.00;;;-2.10;99.90;;;;;;5003790;28;20303;-49
2023/01/29 01:07:13;;;;;;;22.63;13.27;;;-2.00;99.90;;;;;;5004203;28;20209;-48
2023/01/29 01:12:27;;;;;;;24.63;13.07;;;-2.00;99.90;;;;;;5008318;28;20204;-49
2023/01/29 01:14:54;;;;;;;20.40;13.07;;;-2.10;99.90;;;;;;5032957;23;20317;-49
2023/01/29 01:17:24;;;;;;;25.43;12.83;;;-2.00;99.90;;;;;;5011494;28;20958;-49
2023/01/29 01:19:51;;;;;;;23.30;14.30;;;-1.90;99.90;;;;;;5009723;28;20207;-48
2023/01/29 01:22:20;;;;;;;23.73;12.40;;;-1.90;99.90;;;;;;5016852;28;20199;-48
2023/01/29 01:24:47;;;;;;;23.67;12.50;;;-1.80;99.90;;;;;;5010482;28;20228;-48
2023/01/29 01:27:15;;;;;;;25.00;12.93;;;-1.90;99.90;;;;;;5009952;28;20251;-48
2023/01/29 01:29:43;;;;;;;20.80;13.60;;;-1.90;99.90;;;;;;5011648;28;20278;-48
2023/01/29 01:32:10;;;;;;;24.20;12.37;;;-1.80;99.90;;;;;;5006328;28;20203;-48
2023/01/29 01:34:37;;;;;;;20.97;12.10;;;-1.70;99.90;;;;;;4999218;28;20221;-48
2023/01/29 01:37:04;;;;;;;21.60;12.47;;;-1.60;99.90;;;;;;5011175;28;20196;-47
2023/01/29 01:39:31;;;;;;;23.57;13.33;;;-1.70;99.90;;;;;;5008379;28;20258;-47
2023/01/29 01:41:58;;;;;;;27.53;14.73;;;-1.70;99.90;;;;;;5009823;28;20265;-48
2023/01/29 01:44:59;;;;;;;24.33;13.40;;;-1.70;99.90;;;;;;5010240;28;20659;-48
2023/01/29 01:47:34;;;;;;;22.03;13.53;;;-1.70;99.90;;;;;;5007486;28;20212;-48
2023/01/29 01:50:07;;;;;;;22.70;12.63;;;-1.70;99.90;;;;;;5000857;28;20467;-47
2023/01/29 01:52:37;;;;;;;25.53;15.13;;;-1.70;99.90;;;;;;5008313;28;20275;-49
2023/01/29 01:55:05;;;;;;;23.83;13.50;;;-1.60;99.90;;;;;;5008505;28;20236;-49
2023/01/29 01:57:32;;;;;;;24.47;12.90;;;-1.60;99.90;;;;;;4996129;28;20248;-48
2023/01/29 02:00:09;;;;;;;28.33;16.20;;;-1.50;99.90;;;;;;4994349;28;20663;-47
2023/01/29 02:10:52;;;;;;;22.20;12.37;;;-1.30;99.90;;;;;;5006495;28;20586;-49
2023/01/29 02:13:19;;;;;;;22.93;13.67;;;-1.30;99.90;;;;;;5013251;28;20193;-48
2023/01/29 02:15:48;;;;;;;28.53;18.40;;;-1.20;99.90;;;;;;5004072;28;20227;-48
2023/01/29 02:18:16;;;;;;;26.20;16.17;;;-1.20;99.90;;;;;;5009664;28;20707;-48
2023/01/29 02:20:59;;;;;;;23.77;14.33;;;-1.10;99.90;;;;;;5003106;28;20259;-48
2023/01/29 02:23:59;;;;;;;19.03;11.90;;;-1.20;99.90;;;;;;5011095;28;20794;-49
2023/01/29 02:26:42;;;;;;;21.57;13.27;;;-1.10;99.90;;;;;;4989644;28;20227;-47
2023/01/29 02:29:24;;;;;;;24.43;14.00;;;-1.10;99.90;;;;;;5005858;28;20199;-48
2023/01/29 02:31:59;;;;;;;19.80;11.57;;;-1.00;99.90;;;;;;5011303;28;20233;-48
2023/01/29 02:37:30;;;;;;;19.40;12.50;;;-1.00;99.90;;;;;;5000297;28;20821;-48
2023/01/29 02:40:07;;;;;;;17.90;11.37;;;-0.90;99.90;;;;;;5006573;28;20203;-49
2023/01/29 02:42:37;;;;;;;15.97;10.00;;;-0.80;99.90;;;;;;5012752;28;20280;-49
2023/01/29 02:45:11;;;;;;;21.50;12.63;;;-0.80;99.90;;;;;;4999564;28;20263;-48
2023/01/29 02:47:45;;;;;;;20.70;11.60;;;-0.90;99.90;;;;;;5009085;28;20205;-48
2023/01/29 02:50:19;;;;;;;19.10;12.40;;;-0.90;99.90;;;;;;5013494;28;20203;-48
2023/01/29 02:52:55;;;;;;;20.37;12.77;;;-0.90;99.90;;;;;;5012871;28;20307;-49
2023/01/29 02:55:29;;;;;;;14.83;10.57;;;-1.00;99.90;;;;;;5013074;28;20867;-48
2023/01/29 02:58:01;;;;;;;15.60;11.20;;;-1.00;99.90;;;;;;5001842;28;20638;-48
2023/01/29 03:00:35;;;;;;;20.30;12.50;;;-1.00;99.90;;;;;;5000747;28;20204;-49
2023/01/29 03:03:07;;;;;;;22.83;12.07;;;-1.00;99.90;;;;;;5006789;28;20259;-48
2023/01/29 03:05:43;;;;;;;18.13;11.20;;;-0.90;99.90;;;;;;5001816;28;20294;-48
2023/01/29 03:08:15;;;;;;;22.07;12.00;;;-0.90;99.90;;;;;;5005262;28;20201;-48
2023/01/29 03:10:47;;;;;;;18.03;10.50;;;-0.90;99.90;;;;;;5008219;28;20207;-50
2023/01/29 03:13:18;;;;;;;16.10;11.07;;;-0.90;99.90;;;;;;5011753;28;20201;-49
2023/01/29 03:15:50;;;;;;;18.50;10.77;;;-0.90;99.90;;;;;;5004946;28;20677;-48
2023/01/29 03:18:20;;;;;;;17.77;11.20;;;-0.90;99.90;;;;;;5007770;28;20240;-49
2023/01/29 03:20:50;;;;;;;21.57;12.13;;;-0.90;99.90;;;;;;5009410;28;20207;-49
2023/01/29 03:23:23;;;;;;;18.17;11.53;;;-0.90;99.90;;;;;;5006638;28;20200;-50
2023/01/29 03:34:22;;;;;;;22.07;12.03;;;-0.90;99.90;;;;;;4994443;28;20261;-48
2023/01/29 03:36:54;;;;;;;22.13;13.17;;;-0.90;99.90;;;;;;5003078;28;20199;-49
2023/01/29 03:39:22;;;;;;;19.97;12.27;;;-0.90;99.90;;;;;;5012358;28;20199;-48
2023/01/29 03:41:56;;;;;;;21.43;12.23;;;-1.00;99.90;;;;;;5011893;28;20279;-48
2023/01/29 03:44:34;;;;;;;20.03;12.83;;;-1.00;99.90;;;;;;5005945;28;20229;-48
2023/01/29 03:47:14;;;;;;;22.07;12.63;;;-1.10;99.90;;;;;;5005731;28;20559;-48
2023/01/29 03:49:56;;;;;;;20.60;12.77;;;-1.20;99.90;;;;;;5002273;28;20253;-48
2023/01/29 03:52:28;;;;;;;20.57;12.67;;;-1.20;99.90;;;;;;5011593;28;20675;-48
2023/01/29 03:55:05;;;;;;;22.37;13.67;;;-1.30;99.90;;;;;;5009075;28;20267;-48
2023/01/29 03:57:38;;;;;;;27.70;16.00;;;-1.20;99.90;;;;;;5001285;28;20211;-48
2023/01/29 04:00:11;;;;;;;24.30;14.53;;;-1.20;99.90;;;;;;5011838;28;20204;-49
2023/01/29 04:02:47;;;;;;;18.03;12.97;;;-1.30;99.90;;;;;;5005083;28;20354;-48
2023/01/29 04:05:19;;;;;;;24.23;14.07;;;-1.30;99.90;;;;;;5004481;28;20224;-48
2023/01/29 04:07:48;;;;;;;25.00;14.63;;;-1.30;99.90;;;;;;5010004;28;20210;-48
2023/01/29 04:10:19;;;;;;;21.83;13.43;;;-1.30;99.90;;;;;;5011954;28;20649;-48
2023/01/29 04:12:50;;;;;;;21.27;12.67;;;-1.20;99.90;;;;;;5002083;28;20207;-48
2023/01/29 04:15:19;;;;;;;27.80;14.57;;;-1.20;99.90;;;;;;4999084;28;20602;-48
2023/01/29 04:17:51;;;;;;;24.53;13.70;;;-1.30;99.90;;;;;;5009702;28;20260;-48
2023/01/29 04:20:19;;;;;;;29.00;14.03;;;-1.30;99.90;;;;;;5005920;28;20211;-48
2023/01/29 04:22:48;;;;;;;26.87;14.87;;;-1.40;99.90;;;;;;5004233;28;20205;-48
2023/01/29 04:25:17;;;;;;;26.27;15.30;;;-1.40;99.90;;;;;;5006109;28;20227;-48
2023/01/29 04:27:52;;;;;;;23.60;13.07;;;-1.40;99.90;;;;;;5008507;28;20221;-49
2023/01/29 04:30:37;;;;;;;21.70;11.87;;;-1.40;99.90;;;;;;5009845;28;20259;-48
2023/01/29 04:33:12;;;;;;;23.23;13.03;;;-1.50;99.90;;;;;;5003126;28;20201;-48
2023/01/29 04:35:49;;;;;;;23.20;13.17;;;-1.40;99.90;;;;;;5003369;28;20278;-48
2023/01/29 04:38:32;;;;;;;20.13;12.80;;;-1.40;99.90;;;;;;5011611;28;20277;-49
2023/01/29 04:41:05;;;;;;;19.93;11.17;;;-1.40;99.90;;;;;;5000747;28;20196;-48
2023/01/29 04:43:44;;;;;;;22.40;13.07;;;-1.40;99.90;;;;;;5015039;28;20255;-48
2023/01/29 04:46:16;;;;;;;23.33;13.20;;;-1.40;99.90;;;;;;4992969;28;20221;-49
2023/01/29 04:49:00;;;;;;;21.73;12.63;;;-1.50;99.90;;;;;;5005656;28;20257;-48
2023/01/29 04:51:39;;;;;;;21.07;13.20;;;-1.50;99.90;;;;;;5004287;28;20563;-48
2023/01/29 04:54:12;;;;;;;23.20;13.07;;;-1.50;99.90;;;;;;5004833;28;20216;-49
2023/01/29 04:56:48;;;;;;;25.83;13.40;;;-1.50;99.90;;;;;;5010065;28;20203;-48
2023/01/29 04:59:20;;;;;;;21.50;11.83;;;-1.50;99.90;;;;;;5011812;28;20687;-49
2023/01/29 05:01:48;;;;;;;22.77;12.50;;;-1.40;99.90;;;;;;4999292;28;20599;-48
2023/01/29 05:04:20;;;;;;;23.53;12.27;;;-1.50;99.90;;;;;;4992166;28;20931;-48
2023/01/29 05:06:48;;;;;;;23.90;13.20;;;-1.50;99.90;;;;;;5001359;28;20292;-48
2023/01/29 05:09:17;;;;;;;19.23;12.30;;;-1.50;99.90;;;;;;5009667;28;20261;-48
2023/01/29 05:11:46;;;;;;;23.07;13.73;;;-1.50;99.90;;;;;;5010991;28;20233;-48
2023/01/29 05:14:18;;;;;;;20.37;12.37;;;-1.60;99.90;;;;;;5002816;28;20228;-48
2023/01/29 05:16:49;;;;;;;22.27;13.20;;;-1.50;99.90;;;;;;5008671;28;20286;-49
2023/01/29 05:19:17;;;;;;;23.27;13.47;;;-1.60;99.90;;;;;;5008929;28;20212;-48
2023/01/29 05:21:46;;;;;;;27.37;14.50;;;-1.60;99.90;;;;;;5011808;28;20209;-49
2023/01/29 05:24:16;;;;;;;29.60;16.50;;;-1.60;99.90;;;;;;5004101;28;20227;-49
2023/01/29 05:29:34;;;;;;;29.97;17.43;;;-1.70;99.90;;;;;;5005175;28;20212;-49
2023/01/29 05:32:02;;;;;;;31.00;18.00;;;-1.80;99.90;;;;;;5013609;28;20203;-48
2023/01/29 05:34:30;;;;;;;21.33;13.53;;;-1.80;99.90;;;;;;5026499;28;20284;-47
2023/01/29 05:36:58;;;;;;;23.50;13.27;;;-1.70;99.90;;;;;;5022640;28;20251;-47
2023/01/29 05:39:24;;;;;;;22.47;12.77;;;-1.80;99.90;;;;;;5016142;28;20201;-48
2023/01/29 05:41:51;;;;;;;22.33;14.07;;;-1.90;99.90;;;;;;5010875;28;20205;-48
2023/01/29 05:44:19;;;;;;;26.87;14.77;;;-1.90;99.90;;;;;;5011084;28;20225;-49
2023/01/29 05:46:46;;;;;;;24.00;14.77;;;-2.00;99.90;;;;;;4996884;28;20229;-48
2023/01/29 05:49:13;;;;;;;22.63;14.33;;;-2.00;99.90;;;;;;5011333;28;20204;-48
2023/01/29 05:51:41;;;;;;;22.23;14.53;;;-2.10;99.90;;;;;;5007231;28;20250;-48
2023/01/29 05:54:08;;;;;;;28.43;16.77;;;-2.10;99.90;;;;;;4991301;28;20283;-49
2023/01/29 05:56:35;;;;;;;22.40;14.53;;;-2.10;99.90;;;;;;5003022;28;20205;-49
2023/01/29 05:59:02;;;;;;;22.40;12.33;;;-2.10;99.90;;;;;;5018118;28;20209;-48
2023/01/29 06:01:30;;;;;;;22.23;13.47;;;-2.10;99.90;;;;;;5011294;28;20935;-48
2023/01/29 06:03:57;;;;;;;22.43;11.20;;;-2.10;99.90;;;;;;5005612;28;20224;-48
2023/01/29 06:06:24;;;;;;;22.97;11.10;;;-2.00;99.90;;;;;;5007441;28;20224;-49
2023/01/29 06:08:52;;;;;;;17.80;12.40;;;-2.00;99.90;;;;;;5005666;28;20685;-48
2023/01/29 06:11:20;;;;;;;18.23;11.47;;;-2.00;99.90;;;;;;4991509;28;20256;-49
2023/01/29 06:13:50;;;;;;;21.27;12.97;;;-2.10;99.90;;;;;;5001520;28;20743;-48
2023/01/29 06:16:17;;;;;;;21.33;12.53;;;-2.20;99.90;;;;;;5003351;28;20201;-48
2023/01/29 06:18:44;;;;;;;19.77;12.83;;;-2.20;99.90;;;;;;5010791;28;20251;-48
2023/01/29 06:21:13;;;;;;;24.93;15.03;;;-2.30;99.90;;;;;;5001873;28;20199;-48
2023/01/29 06:23:40;;;;;;;17.83;10.43;;;-2.30;99.90;;;;;;5010278;28;20207;-48
2023/01/29 06:26:12;;;;;;;18.33;10.90;;;-2.30;99.90;;;;;;5004442;28;20244;-48
2023/01/29 06:28:39;;;;;;;20.03;12.67;;;-2.30;99.90;;;;;;5010602;28;20639;-48
2023/01/29 06:31:08;;;;;;;21.20;12.30;;;-2.30;99.90;;;;;;5005470;28;20217;-49
2023/01/29 06:33:35;;;;;;;19.90;13.07;;;-2.30;99.90;;;;;;5010349;28;20232;-49
2023/01/29 06:36:04;;;;;;;19.27;11.80;;;-2.30;99.90;;;;;;4996824;28;20243;-49
2023/01/29 06:38:31;;;;;;;16.07;11.30;;;-2.30;99.90;;;;;;5008641;28;20205;-48
2023/01/29 06:40:59;;;;;;;18.40;10.67;;;-2.20;99.90;;;;;;5000840;28;20212;-49
2023/01/29 06:43:27;;;;;;;16.00;10.87;;;-2.20;99.90;;;;;;5007115;28;20274;-48
2023/01/29 06:45:56;;;;;;;17.43;10.70;;;-2.10;99.90;;;;;;5003903;28;20240;-48
2023/01/29 06:48:24;;;;;;;16.67;10.37;;;-2.00;99.90;;;;;;5010745;28;20205;-49
2023/01/29 06:50:53;;;;;;;18.87;11.03;;;-2.10;99.90;;;;;;5007987;28;20259;-48
2023/01/29 06:53:21;;;;;;;19.63;10.13;;;-2.00;99.90;;;;;;5007697;28;20280;-48
2023/01/29 06:55:51;;;;;;;16.60;10.67;;;-2.00;99.90;;;;;;5008730;28;20271;-48
2023/01/29 06:58:18;;;;;;;17.70;10.23;;;-2.00;99.90;;;;;;5013723;28;20197;-48
2023/01/29 07:00:47;;;;;;;20.27;12.10;;;-2.00;99.90;;;;;;5013193;28;20281;-48
2023/01/29 07:03:14;;;;;;;36.10;18.03;;;-2.00;99.90;;;;;;5013735;28;20209;-48
2023/01/29 07:05:41;;;;;;;26.43;16.03;;;-2.10;99.90;;;;;;5011720;28;20228;-48
2023/01/29 07:08:08;;;;;;;18.37;11.93;;;-2.10;99.90;;;;;;5007824;28;20628;-48
2023/01/29 07:10:35;;;;;;;19.13;11.77;;;-2.10;99.90;;;;;;5013630;28;20201;-48
2023/01/29 07:13:02;;;;;;;23.67;12.60;;;-2.10;99.90;;;;;;5013700;28;20666;-48
2023/01/29 07:15:29;;;;;;;18.17;10.90;;;-2.10;99.90;;;;;;5005397;28;20232;-49
2023/01/29 07:17:58;;;;;;;23.80;12.07;;;-2.10;99.90;;;;;;5002646;28;20209;-47
2023/01/29 07:20:26;;;;;;;18.47;10.90;;;-2.10;99.90;;;;;;5001081;28;20558;-48
2023/01/29 07:22:53;;;;;;;17.00;11.23;;;-2.10;99.90;;;;;;5010022;28;20276;-48
2023/01/29 07:25:20;;;;;;;21.73;11.07;;;-2.10;99.90;;;;;;4998514;28;20313;-48
2023/01/29 07:27:48;;;;;;;18.90;10.87;;;-2.00;99.90;;;;;;5008965;28;20232;-48
2023/01/29 07:30:15;;;;;;;18.80;11.50;;;-2.00;99.90;;;;;;5001835;28;20227;-50
2023/01/29 07:32:43;;;;;;;23.23;11.50;;;-2.00;99.90;;;;;;5008200;28;20201;-49
2023/01/29 07:35:11;;;;;;;22.67;12.03;;;-2.00;99.90;;;;;;5009491;28;20286;-49
2023/01/29 07:37:38;;;;;;;16.63;10.27;;;-2.00;99.90;;;;;;5012984;28;20616;-48
2023/01/29 07:40:10;;;;;;;21.63;11.53;;;-2.00;99.90;;;;;;5006841;28;20204;-48
2023/01/29 07:42:38;;;;;;;23.00;11.97;;;-2.00;99.90;;;;;;5014928;28;20201;-48
2023/01/29 07:45:07;;;;;;;22.53;13.07;;;-2.00;99.90;;;;;;5008985;28;20223;-48
2023/01/29 07:47:34;;;;;;;19.47;11.47;;;-1.90;99.90;;;;;;5008067;28;20217;-48
2023/01/29 07:50:01;;;;;;;18.53;11.20;;;-1.90;99.90;;;;;;5003436;28;20255;-48
2023/01/29 07:52:31;;;;;;;23.70;13.33;;;-1.90;99.90;;;;;;4998882;28;20618;-48
2023/01/29 07:54:58;;;;;;;24.53;13.10;;;-1.90;99.90;;;;;;5002211;28;20219;-48
2023/01/29 07:57:25;;;;;;;30.60;14.77;;;-1.80;99.90;;;;;;5000699;28;20730;-47
2023/01/29 07:59:52;;;;;;;18.20;11.60;;;-1.70;99.90;;;;;;5002039;28;20233;-49
2023/01/29 08:02:22;;;;;;;30.90;15.47;;;-1.60;99.90;;;;;;4998264;28;20279;-48
2023/01/29 08:04:49;;;;;;;28.17;14.07;;;-1.60;99.90;;;;;;5009301;28;20224;-48
2023/01/29 08:07:19;;;;;;;26.17;14.63;;;-1.50;99.90;;;;;;5005339;28;20801;-48
2023/01/29 08:09:47;;;;;;;20.43;12.00;;;-1.50;99.90;;;;;;5009133;28;20253;-48
2023/01/29 08:12:14;;;;;;;19.93;12.07;;;-1.50;99.90;;;;;;5010029;28;20332;-48
2023/01/29 08:14:41;;;;;;;20.23;12.10;;;-1.50;99.90;;;;;;5006661;28;20232;-48
2023/01/29 08:17:08;;;;;;;21.03;12.47;;;-1.50;99.90;;;;;;5007151;28;20213;-49
2023/01/29 08:19:35;;;;;;;17.63;10.77;;;-1.40;99.90;;;;;;5007883;28;20267;-48
2023/01/29 08:22:02;;;;;;;17.13;10.67;;;-1.10;99.90;;;;;;5009851;28;20201;-49
2023/01/29 08:24:29;;;;;;;18.60;9.73;;;-0.80;99.90;;;;;;5012110;28;20220;-48
2023/01/29 08:26:57;;;;;;;17.63;10.00;;;-0.60;99.90;;;;;;5007881;28;20217;-48
2023/01/29 08:29:24;;;;;;;14.60;9.37;;;-0.70;99.90;;;;;;5007488;28;22201;-48
2023/01/29 08:31:51;;;;;;;17.77;10.77;;;-0.70;99.90;;;;;;4998309;28;20208;-48
2023/01/29 08:34:18;;;;;;;16.93;9.37;;;-0.80;99.90;;;;;;4997208;28;20221;-48
2023/01/29 08:36:45;;;;;;;17.10;10.10;;;-0.70;99.90;;;;;;5009518;28;20574;-48
2023/01/29 08:39:12;;;;;;;16.87;10.27;;;-0.60;99.90;;;;;;5010709;28;20204;-49
2023/01/29 08:41:39;;;;;;;16.53;10.57;;;-0.30;99.90;;;;;;5001765;28;20255;-49
2023/01/29 08:44:07;;;;;;;16.13;10.20;;;-0.10;99.90;;;;;;5007452;28;20280;-48
2023/01/29 08:46:34;;;;;;;18.27;11.43;;;0.30;99.90;;;;;;4999118;28;20221;-48
2023/01/29 08:49:01;;;;;;;13.93;8.40;;;0.70;99.90;;;;;;5006524;28;20876;-48
2023/01/29 08:51:28;;;;;;;15.47;9.23;;;1.00;99.90;;;;;;4994118;28;20351;-48
2023/01/29 08:53:55;;;;;;;12.93;8.70;;;1.40;99.90;;;;;;5006130;28;20290;-47
2023/01/29 08:56:22;;;;;;;16.07;9.57;;;1.70;99.90;;;;;;5007601;28;20668;-48
2023/01/29 08:58:49;;;;;;;15.00;9.43;;;1.90;99.90;;;;;;5005081;28;20249;-48
2023/01/29 09:01:18;;;;;;;16.47;9.20;;;1.80;99.90;;;;;;5004833;28;20268;-48
2023/01/29 09:03:45;;;;;;;13.30;9.33;;;1.80;99.90;;;;;;5007328;28;20231;-48
2023/01/29 09:06:14;;;;;;;18.37;9.57;;;2.10;99.90;;;;;;5006012;28;20203;-48
2023/01/29 09:08:41;;;;;;;13.20;9.07;;;2.30;99.90;;;;;;5007938;28;20397;-49
2023/01/29 09:11:08;;;;;;;14.70;9.80;;;2.80;99.90;;;;;;5005336;28;20205;-49
2023/01/29 09:13:35;;;;;;;14.57;10.23;;;3.10;99.90;;;;;;5006094;28;20744;-49
2023/01/29 09:16:02;;;;;;;15.00;8.57;;;3.70;99.90;;;;;;5003596;28;20273;-49
2023/01/29 09:18:31;;;;;;;14.13;8.27;;;4.00;99.90;;;;;;4998868;28;20205;-49
2023/01/29 09:20:58;;;;;;;13.90;8.40;;;4.00;99.90;;;;;;4997709;28;20208;-49
2023/01/29 09:23:25;;;;;;;16.97;8.83;;;4.00;99.90;;;;;;5005157;28;20256;-49
2023/01/29 09:25:52;;;;;;;14.93;9.63;;;4.10;99.90;;;;;;5008250;28;20237;-50
2023/01/29 09:28:19;;;;;;;12.40;7.47;;;4.00;99.90;;;;;;5011490;28;20224;-48
2023/01/29 09:30:47;;;;;;;23.67;14.27;;;4.10;99.90;;;;;;5005905;28;20725;-48
2023/01/29 09:33:14;;;;;;;12.63;8.13;;;4.20;99.90;;;;;;4997269;28;20251;-49
2023/01/29 09:35:44;;;;;;;7.63;6.37;;;4.40;99.90;;;;;;4999093;28;20355;-49
2023/01/29 09:38:11;;;;;;;9.00;6.20;;;4.50;99.90;;;;;;5000268;28;20295;-49
2023/01/29 09:40:45;;;;;;;12.63;7.67;;;4.80;99.90;;;;;;5002596;28;20266;-48
2023/01/29 09:43:16;;;;;;;9.53;7.03;;;4.70;99.90;;;;;;5005035;28;20201;-49
2023/01/29 09:45:53;;;;;;;13.67;7.67;;;4.70;99.90;;;;;;5001546;28;20226;-49
2023/01/29 09:48:21;;;;;;;12.10;7.57;;;5.20;99.90;;;;;;5004467;28;20611;-49
2023/01/29 09:50:53;;;;;;;9.40;6.70;;;5.30;99.90;;;;;;5000779;28;20204;-48
2023/01/29 09:53:28;;;;;;;10.83;6.63;;;5.40;99.90;;;;;;5002501;28;20288;-48
2023/01/29 09:55:59;;;;;;;8.93;7.13;;;5.40;99.90;;;;;;4998706;28;20212;-49
2023/01/29 09:58:31;;;;;;;8.80;7.10;;;5.40;99.90;;;;;;5006611;28;20204;-49
2023/01/29 10:01:06;;;;;;;9.70;7.30;;;5.60;99.90;;;;;;4996390;28;20197;-49
2023/01/29 10:03:55;;;;;;;10.63;7.80;;;5.50;99.90;;;;;;5000787;28;20196;-49
2023/01/29 10:06:36;;;;;;;10.30;7.70;;;5.20;99.90;;;;;;5002971;28;20572;-49
2023/01/29 10:09:35;;;;;;;7.60;6.83;;;5.00;99.90;;;;;;4997156;28;20198;-48
2023/01/29 10:12:20;;;;;;;9.27;7.03;;;4.60;99.90;;;;;;4997050;28;20200;-49
2023/01/29 10:14:54;;;;;;;9.93;7.27;;;4.50;99.90;;;;;;5002097;28;20630;-50
2023/01/29 10:17:40;;;;;;;7.63;6.47;;;4.60;99.90;;;;;;5010074;28;20246;-48
2023/01/29 10:20:27;;;;;;;10.47;7.33;;;5.00;99.90;;;;;;5010386;28;20213;-49
2023/01/29 10:23:07;;;;;;;12.20;7.20;;;5.10;99.90;;;;;;5009987;28;20208;-49
2023/01/29 10:25:39;;;;;;;9.57;7.20;;;5.50;99.90;;;;;;5008900;28;20226;-49
2023/01/29 10:28:17;;;;;;;10.93;8.23;;;5.80;99.90;;;;;;5000196;28;20221;-48
2023/01/29 10:30:48;;;;;;;12.67;9.93;;;6.30;99.90;;;;;;5011254;28;20681;-49
2023/01/29 10:33:19;;;;;;;10.40;7.30;;;6.40;99.90;;;;;;5006580;28;20206;-49
2023/01/29 10:35:51;;;;;;;13.83;9.20;;;6.80;99.90;;;;;;5011750;28;20226;-49
2023/01/29 10:38:37;;;;;;;10.27;7.20;;;6.70;99.90;;;;;;5010063;28;20954;-49
2023/01/29 10:41:22;;;;;;;12.20;8.60;;;6.50;99.90;;;;;;4994250;28;20657;-49
2023/01/29 10:44:06;;;;;;;11.57;8.47;;;6.90;99.90;;;;;;5007633;28;20594;-49
2023/01/29 10:46:47;;;;;;;11.50;6.97;;;6.90;99.90;;;;;;5002429;28;20261;-49
2023/01/29 10:49:27;;;;;;;10.37;8.03;;;6.80;99.90;;;;;;5002066;28;20573;-49
2023/01/29 10:52:14;;;;;;;9.37;7.20;;;6.30;99.90;;;;;;5007316;28;20209;-48
2023/01/29 10:54:58;;;;;;;12.63;8.80;;;6.00;99.90;;;;;;4999833;28;20224;-49
2023/01/29 10:57:42;;;;;;;13.50;8.83;;;6.00;99.90;;;;;;5013555;28;20667;-49
2023/01/29 11:00:13;;;;;;;12.43;8.50;;;5.70;99.90;;;;;;5007825;28;20268;-50
2023/01/29 11:02:44;;;;;;;12.40;8.20;;;5.60;99.90;;;;;;5004376;28;20207;-48
2023/01/29 11:05:19;;;;;;;11.10;7.93;;;5.30;99.90;;;;;;5006852;28;20234;-49
2023/01/29 11:07:48;;;;;;;11.93;8.65;;;5.20;99.90;;;;;;5012036;28;20520;-49
2023/01/29 11:10:19;;;;;;;11.23;7.43;;;5.10;99.90;;;;;;5002151;28;20232;-50
2023/01/29 11:12:47;;;;;;;11.77;7.60;;;4.70;99.90;;;;;;5005573;28;20205;-48
2023/01/29 11:15:19;;;;;;;13.20;8.40;;;4.70;99.90;;;;;;5004914;28;20292;-48
2023/01/29 11:18:01;;;;;;;9.27;7.10;;;4.60;99.90;;;;;;4993721;28;20206;-49
2023/01/29 11:20:30;;;;;;;9.43;6.53;;;4.40;99.90;;;;;;4993806;28;20202;-49
2023/01/29 11:22:56;;;;;;;11.70;7.43;;;4.50;99.90;;;;;;5011731;28;20216;-50
2023/01/29 11:25:26;;;;;;;18.27;10.37;;;4.40;99.90;;;;;;5011131;28;20228;-50
2023/01/29 11:27:55;;;;;;;16.37;7.90;;;4.60;99.90;;;;;;5007259;28;20237;-49
2023/01/29 11:30:26;;;;;;;8.30;6.90;;;4.60;99.90;;;;;;5011353;28;20287;-50
2023/01/29 11:33:06;;;;;;;10.97;7.90;;;4.70;99.90;;;;;;5003682;28;20195;-50
2023/01/29 11:35:33;;;;;;;14.67;8.33;;;4.60;99.90;;;;;;5001996;28;20661;-49
2023/01/29 11:38:09;;;;;;;14.70;9.27;;;4.50;99.90;;;;;;5012910;28;20217;-49
2023/01/29 11:40:39;;;;;;;12.50;9.68;;;4.50;99.90;;;;;;5005677;28;20463;-50
2023/01/29 11:43:33;;;;;;;11.83;8.60;;;4.40;99.90;;;;;;5005982;28;20209;-49
2023/01/29 11:46:03;;;;;;;14.27;9.50;;;4.50;99.90;;;;;;4992722;28;20254;-49
2023/01/29 11:48:39;;;;;;;13.60;9.83;;;4.60;99.90;;;;;;5007819;28;20217;-49
2023/01/29 11:51:06;;;;;;;14.37;9.13;;;4.60;99.90;;;;;;4992427;28;20204;-49
2023/01/29 11:53:39;;;;;;;12.23;8.80;;;4.40;99.90;;;;;;5008010;28;20212;-49
2023/01/29 11:56:18;;;;;;;13.17;8.70;;;4.50;99.90;;;;;;5012477;28;20210;-49
2023/01/29 11:58:47;;;;;;;13.57;8.60;;;4.50;99.90;;;;;;5012509;28;20255;-48
2023/01/29 12:01:18;;;;;;;13.53;9.87;;;4.60;99.90;;;;;;5002296;28;20283;-48
2023/01/29 12:03:52;;;;;;;16.00;10.87;;;4.50;99.90;;;;;;5010656;28;21990;-48
2023/01/29 12:06:22;;;;;;;13.60;10.33;;;4.50;99.90;;;;;;5010465;28;20255;-49
2023/01/29 12:08:56;;;;;;;14.60;10.87;;;4.40;99.90;;;;;;5012758;28;20228;-49
2023/01/29 12:11:29;;;;;;;19.93;11.03;;;4.40;99.90;;;;;;5011219;28;20230;-49
2023/01/29 12:13:58;;;;;;;16.50;10.43;;;4.50;99.90;;;;;;4997498;28;20236;-49
2023/01/29 12:16:30;;;;;;;14.03;10.57;;;4.50;99.90;;;;;;5012259;28;20307;-49
2023/01/29 12:19:06;;;;;;;21.53;12.50;;;4.60;99.90;;;;;;4994191;28;20205;-48
2023/01/29 12:21:38;;;;;;;19.53;12.10;;;4.60;99.90;;;;;;5010420;28;20629;-49
2023/01/29 12:24:18;;;;;;;15.53;10.77;;;4.60;99.90;;;;;;4996958;28;20292;-48
2023/01/29 12:26:51;;;;;;;15.00;11.53;;;4.50;99.90;;;;;;4995523;28;20689;-49
2023/01/29 12:29:31;;;;;;;18.20;12.50;;;4.40;99.90;;;;;;5012146;28;20216;-48
2023/01/29 12:32:06;;;;;;;20.37;12.40;;;4.40;99.90;;;;;;4999283;28;20210;-49
2023/01/29 12:34:43;;;;;;;20.33;12.23;;;4.40;99.90;;;;;;5004761;28;20251;-50
2023/01/29 12:37:17;;;;;;;23.17;12.40;;;4.20;99.90;;;;;;4991728;28;20197;-48
2023/01/29 12:39:45;;;;;;;16.43;11.90;;;4.30;99.90;;;;;;5007146;28;20296;-49
2023/01/29 12:42:21;;;;;;;19.73;12.10;;;4.40;99.90;;;;;;5004995;28;20678;-48
2023/01/29 12:44:54;;;;;;;19.37;12.90;;;4.30;99.90;;;;;;5000198;28;20232;-48
2023/01/29 12:47:27;;;;;;;21.73;12.23;;;4.30;99.90;;;;;;5000406;28;20207;-49
2023/01/29 12:49:57;;;;;;;18.17;11.73;;;4.30;99.90;;;;;;5010436;28;20235;-48
2023/01/29 12:52:37;;;;;;;18.07;12.77;;;4.30;99.90;;;;;;5010338;28;20205;-48
2023/01/29 12:55:12;;;;;;;21.53;13.53;;;4.10;99.90;;;;;;4993930;28;20224;-48
2023/01/29 12:57:49;;;;;;;21.87;14.30;;;4.10;99.90;;;;;;5003745;28;20628;-48
2023/01/29 13:00:20;;;;;;;21.33;13.10;;;4.00;99.90;;;;;;5008333;28;20197;-48
2023/01/29 13:02:54;;;;;;;24.77;13.53;;;3.80;99.90;;;;;;5009523;28;20209;-48
2023/01/29 13:05:25;;;;;;;19.17;12.97;;;3.80;99.90;;;;;;5000507;28;20221;-48
2023/01/29 13:07:58;;;;;;;23.30;14.10;;;3.70;99.90;;;;;;5009977;28;20765;-48
2023/01/29 13:10:32;;;;;;;20.13;12.60;;;3.40;99.90;;;;;;4991727;28;20259;-48
2023/01/29 13:13:05;;;;;;;21.87;13.83;;;3.50;99.90;;;;;;5002557;28;20243;-49
2023/01/29 13:15:36;;;;;;;17.70;11.77;;;3.70;99.90;;;;;;5010354;28;20232;-48
2023/01/29 13:18:23;;;;;;;19.23;12.17;;;3.80;99.90;;;;;;5011936;28;20403;-49
2023/01/29 13:20:51;;;;;;;15.97;10.53;;;3.90;99.90;;;;;;4994129;28;20260;-48
2023/01/29 13:23:22;;;;;;;16.00;10.17;;;4.00;99.90;;;;;;5003930;28;20198;-49
2023/01/29 13:25:51;;;;;;;16.43;11.00;;;4.10;99.90;;;;;;5002770;28;20256;-48
2023/01/29 13:28:23;;;;;;;19.60;10.57;;;4.20;99.90;;;;;;5010556;28;20236;-50
2023/01/29 13:31:18;;;;;;;16.63;11.47;;;4.30;99.90;;;;;;5008740;28;20201;-49